Terminal Aerodrome Forecast
Issued by NWS Wilmington, OH

Home | Current Version | Previous Version | Text Only | Print | Product List | Glossary On
Versions: 1 2 3 4 5 6 7 8 9 10 11 12 13 14 15 16 17 18 19
650
FTUS41 KILN 171946 AAA
TAFDAY
TAF AMD
KDAY 171946Z 1720/1818 24010KT P6SM VCSH SCT050 BKN100
     FM180700 24007KT 4SM BR BKN015
     FM181300 26012KT P6SM BKN025
     FM181700 27012G20KT P6SM BKN040=

USA.gov is the U.S. government's official web portal to all federal, state and local government web resources and services.